Forside
METAR-TAF:

METAR-TAF

Lufthavne :

Sikeston, Missouri, USA

Breddekreds: 36-53-56N, længdekreds: 089-33-42W, højde: 96 m

Aktuelle vejr

Denne rapport blev lavet for 17 minutter siden, kl. 12:15 UTC
Vind 12 kt fra sydsydøst med vindstød på up til 17 kt
Temperatur 2°C
Fugtighed 75%
Tryk 1022 hPa
Sigt: 16.1 km
Overskyet i en højde af 4400 ft

METAR: KSIK 221215Z AUTO 15012G17KT 10SM OVC044 02/M02 A3019 RMK AO2

Tid: 06:32 (12:32 UTC)


TAF: fraværende

Vejrobservationer og prognoser fra mere end 4000 lufthavne (METAR og TAF).

De gule og røde prikker repræsenterer de meteorologiske stationer.

Flyt musen over at se navnet på stationen.

Så klik over at se vejr observationer og prognoser.

At skifte det kort: Klik på de grønne knapper med et sort kors for at zoome ind; på den grønne knap med en bindestreg for at zoome ud; eller på de grønne pile for tilstødende kort.


METAR-TAF: